createdAt,value
2023-05-04T17:50:19.932Z,26.26
2023-05-04T17:52:54.971Z,26.36
2023-05-04T17:55:27.312Z,26.43
2023-05-04T17:58:01.354Z,26.38
2023-05-04T18:21:58.034Z,26.88
2023-05-04T18:24:32.610Z,26.90
2023-05-04T18:27:03.795Z,26.90
2023-05-04T18:29:35.268Z,26.91
2023-05-04T18:32:15.821Z,26.96
2023-05-04T18:34:50.789Z,26.95
2023-05-04T18:37:23.306Z,27.00
2023-05-04T18:39:56.677Z,27.02
2023-05-04T18:42:28.355Z,27.04
2023-05-04T18:44:59.862Z,27.09
2023-05-04T18:47:35.755Z,27.10
2023-05-04T18:50:08.625Z,27.10
2023-05-04T19:01:23.494Z,27.17
2023-05-04T19:04:02.174Z,27.17
2023-05-04T19:06:34.330Z,27.42
2023-05-04T19:09:08.205Z,27.49
2023-05-04T19:14:47.086Z,27.70
2023-05-04T19:17:21.128Z,27.65
2023-05-04T19:19:52.896Z,27.80
2023-05-04T19:22:26.538Z,27.72
2023-05-04T19:25:00.191Z,27.70
2023-05-04T19:27:31.928Z,27.64
2023-05-04T19:30:05.756Z,27.61
2023-05-04T19:32:41.793Z,27.68
2023-05-04T19:35:14.696Z,27.72
2023-05-04T19:37:49.640Z,27.79
2023-05-04T19:40:22.802Z,27.85
2023-05-04T19:42:56.627Z,27.98
2023-05-04T19:45:28.368Z,28.01
2023-05-04T19:48:00.418Z,28.06
2023-05-04T19:50:32.092Z,28.24
2023-05-04T19:53:04.361Z,28.28
2023-05-04T19:55:37.042Z,28.29
2023-05-04T19:58:10.292Z,28.24
2023-05-04T20:00:42.017Z,28.27
2023-05-04T20:03:13.529Z,28.31
2023-05-04T20:05:46.970Z,28.44
2023-05-04T20:08:21.688Z,28.74
2023-05-04T20:10:53.368Z,29.04
2023-05-04T20:13:28.514Z,29.03
2023-05-04T20:16:01.767Z,28.96
2023-05-04T20:18:36.708Z,28.93
2023-05-04T20:21:13.821Z,28.83
2023-05-04T20:23:54.855Z,28.83
2023-05-04T20:26:51.666Z,28.81
2023-05-04T20:29:23.398Z,28.78
2023-05-04T20:32:01.663Z,28.89
2023-05-04T20:34:39.051Z,28.91
2023-05-04T20:37:10.840Z,28.84
2023-05-04T20:39:44.727Z,28.94
2023-05-04T20:42:16.450Z,29.03
2023-05-04T20:44:51.566Z,29.14
2023-05-04T20:47:26.496Z,29.25
2023-05-04T20:50:06.933Z,29.46
2023-05-04T20:52:43.486Z,29.33
2023-05-04T20:55:15.626Z,29.20
2023-05-04T20:57:48.433Z,29.14
2023-05-04T21:00:22.067Z,29.22
2023-05-04T21:05:44.027Z,29.41
2023-05-04T21:08:18.773Z,29.43
2023-05-04T21:10:53.678Z,29.50
2023-05-04T21:13:26.967Z,29.50
2023-05-04T21:15:59.888Z,29.43
2023-05-04T21:18:36.426Z,29.32
2023-05-04T21:21:14.086Z,29.41
2023-05-04T21:23:56.177Z,29.41
2023-05-04T21:26:31.688Z,29.31
2023-05-04T21:29:08.893Z,29.42
2023-05-04T21:32:07.538Z,29.45
2023-05-04T21:34:45.520Z,29.45
2023-05-04T21:37:20.103Z,29.59
2023-05-04T21:39:55.898Z,29.55
2023-05-04T21:42:30.655Z,29.77
2023-05-04T21:45:02.964Z,30.08
2023-05-04T21:47:36.429Z,31.24
2023-05-04T21:50:09.543Z,31.62
2023-05-04T21:52:41.823Z,31.19
2023-05-04T21:55:14.195Z,31.08
2023-05-04T21:57:51.469Z,31.43
2023-05-04T22:00:29.111Z,30.99
2023-05-04T22:03:01.742Z,30.90
2023-05-04T22:05:36.405Z,30.43
2023-05-04T22:08:13.626Z,30.31
2023-05-04T22:10:48.447Z,30.11
2023-05-04T22:13:22.372Z,29.98
2023-05-04T22:15:56.913Z,29.98
2023-05-04T22:18:33.250Z,30.09
2023-05-04T22:21:15.049Z,30.16
2023-05-04T22:23:48.706Z,30.34
2023-05-04T22:26:23.398Z,30.35
2023-05-04T22:29:05.411Z,30.30
2023-05-04T22:31:40.074Z,30.22
2023-05-04T22:34:19.152Z,30.21
2023-05-04T22:36:54.771Z,30.30
2023-05-04T22:39:36.138Z,30.30
2023-05-04T22:42:09.069Z,30.25
2023-05-04T22:44:41.854Z,30.20
2023-05-04T22:47:14.777Z,30.19
2023-05-04T22:49:52.165Z,30.12
2023-05-04T22:52:24.815Z,30.26
2023-05-04T22:54:58.558Z,30.21
2023-05-04T22:57:30.987Z,30.16
2023-05-04T23:00:04.308Z,30.00
2023-05-04T23:02:41.686Z,30.07
2023-05-04T23:05:14.357Z,29.95
2023-05-04T23:07:48.489Z,30.01
2023-05-04T23:10:21.171Z,30.02
2023-05-04T23:12:53.566Z,30.01
2023-05-04T23:15:25.852Z,30.27
2023-05-04T23:17:58.029Z,30.52
2023-05-04T23:20:30.365Z,30.46
2023-05-04T23:23:02.492Z,30.72
2023-05-04T23:25:34.822Z,31.00
2023-05-04T23:28:07.164Z,30.66
2023-05-04T23:30:39.323Z,30.50
2023-05-04T23:33:12.617Z,30.42
2023-05-04T23:35:44.658Z,30.43
2023-05-04T23:38:16.694Z,30.46
2023-05-04T23:40:48.788Z,30.42
2023-05-04T23:43:21.338Z,30.43
2023-05-04T23:46:01.188Z,30.54
2023-05-04T23:48:33.826Z,30.65
2023-05-04T23:51:06.499Z,30.67
2023-05-04T23:53:38.550Z,30.58
2023-05-04T23:56:10.629Z,30.63
2023-05-04T23:58:42.982Z,30.60
